Lake Dallas, Texas
Current Conditions -  °F | °C
As of 12:53 PM on Thursday 23 Oct 2014 (Local Time) from KDTO Reporting Station
Clear Clear  
Wind Chill: 74°   Ceiling: Unl
Heat Index: 74°   Visibility: 10mi
Dew Point: 57°   Wind: 12mph
Humidity: 55%   Direction: 170°S
Pressure: 30.13"   Gusts: NA
Location:  33.12°N, 97.03°W
Report Text: KDTO 231753Z 17010KT 10SM CLR 23/14 A3013 RMK AO2 SLP197 T02330139 10233 20178 58009
Loading
Personal Weather Stations






























Interactive Weather Map
Tropical Storm Tracking
New forecast layout! Learn more

10-Day Weather Forecast

Advertisements
Track Severe Weather on mobile